createdAt,value
2019-04-27T00:00:09.108Z,98.08
2019-04-27T00:01:13.819Z,97.79
2019-04-27T00:03:41.538Z,97.55
2019-04-27T00:04:40.836Z,97.55
2019-04-27T00:05:40.837Z,97.69
2019-04-27T00:07:06.340Z,97.03
2019-04-27T00:07:41.339Z,97.50
2019-04-27T00:08:43.026Z,97.69
2019-04-27T00:09:50.087Z,97.69
2019-04-27T00:10:43.597Z,97.98
2019-04-27T00:11:45.331Z,97.79
2019-04-27T00:12:44.338Z,98.08
2019-04-27T00:13:43.498Z,97.79
2019-04-27T00:16:13.570Z,98.55
2019-04-27T00:17:13.580Z,98.17
2019-04-27T00:18:17.585Z,98.65
2019-04-27T00:19:14.106Z,99.69
2019-04-27T00:20:14.078Z,99.69
2019-04-27T00:21:15.201Z,99.99
2019-04-27T00:22:14.717Z,99.99
2019-04-27T00:23:15.523Z,99.99
2019-04-27T00:24:17.582Z,99.99
2019-04-27T00:25:14.577Z,99.99
2019-04-27T00:26:14.578Z,99.99
2019-04-27T00:27:14.577Z,99.99
2019-04-27T00:28:15.078Z,99.99
2019-04-27T00:29:19.078Z,99.99
2019-04-27T00:30:15.078Z,99.99
2019-04-27T00:31:15.078Z,99.74
2019-04-27T00:32:36.583Z,99.74
2019-04-27T00:33:15.577Z,99.99
2019-04-27T00:34:46.578Z,99.93
2019-04-27T00:35:16.539Z,99.99
2019-04-27T00:36:37.077Z,99.84
2019-04-27T00:37:16.078Z,99.99
2019-04-27T00:38:17.532Z,99.99
2019-04-27T00:39:16.079Z,99.99
2019-04-27T00:40:41.092Z,99.99
2019-04-27T00:41:18.998Z,99.99
2019-04-27T00:42:16.581Z,99.99
2019-04-27T00:43:16.581Z,99.99
2019-04-27T00:44:16.578Z,99.99
2019-04-27T00:45:20.078Z,99.99
2019-04-27T00:46:17.079Z,99.99
2019-04-27T00:47:17.079Z,99.99
2019-04-27T00:48:17.078Z,99.99
2019-04-27T00:49:17.085Z,99.99
2019-04-27T00:51:53.616Z,99.99
2019-04-27T00:52:53.226Z,99.99
2019-04-27T00:53:53.549Z,99.99
2019-04-27T00:54:53.915Z,99.99
2019-04-27T00:56:17.769Z,99.99
2019-04-27T00:57:14.279Z,99.99
2019-04-27T00:57:53.668Z,99.99
2019-04-27T00:58:53.772Z,99.84
2019-04-27T00:59:53.770Z,99.99
2019-04-27T01:00:57.270Z,99.46
2019-04-27T01:01:53.769Z,99.99
2019-04-27T01:03:15.277Z,99.55
2019-04-27T01:03:55.200Z,99.46
2019-04-27T01:04:54.270Z,99.17
2019-04-27T01:05:58.271Z,99.27
2019-04-27T01:06:54.769Z,98.03
2019-04-27T01:07:54.769Z,98.32
2019-04-27T01:08:54.769Z,98.50
2019-04-27T01:09:55.756Z,98.50
2019-04-27T01:10:55.268Z,98.69
2019-04-27T01:11:58.269Z,99.36
2019-04-27T01:12:55.271Z,99.93
2019-04-27T01:13:55.270Z,99.69
2019-04-27T01:14:55.770Z,99.99
2019-04-27T01:15:55.780Z,99.84
2019-04-27T01:16:59.911Z,99.99
2019-04-27T01:18:11.113Z,99.99
2019-04-27T01:18:56.269Z,99.99
2019-04-27T01:19:56.269Z,99.99
2019-04-27T01:20:56.269Z,99.65
2019-04-27T01:21:56.268Z,99.84
2019-04-27T01:23:00.769Z,99.84
2019-04-27T01:23:56.769Z,99.84
2019-04-27T01:24:56.769Z,99.36
2019-04-27T01:25:56.771Z,99.99
2019-04-27T01:27:18.926Z,99.99
2019-04-27T01:27:57.269Z,99.99
2019-04-27T01:29:00.769Z,99.99
2019-04-27T01:29:58.829Z,99.99
2019-04-27T01:30:58.863Z,99.99
2019-04-27T01:31:58.882Z,99.99
2019-04-27T01:32:57.937Z,99.99
2019-04-27T01:34:01.769Z,99.99
2019-04-27T01:34:59.210Z,99.99
2019-04-27T01:35:58.820Z,99.99
2019-04-27T01:36:59.492Z,99.99
2019-04-27T01:37:58.937Z,99.99
2019-04-27T01:38:59.545Z,99.99
2019-04-27T01:40:05.204Z,99.99
2019-04-27T01:41:00.608Z,99.55
2019-04-27T01:41:59.141Z,99.27
2019-04-27T01:42:59.294Z,99.36
2019-04-27T01:43:59.272Z,99.36
2019-04-27T01:44:59.545Z,99.46
2019-04-27T01:46:02.769Z,99.99
2019-04-27T01:46:59.974Z,99.84
2019-04-27T01:47:59.769Z,99.93
2019-04-27T01:48:59.769Z,99.65
2019-04-27T01:49:59.769Z,99.99
2019-04-27T01:51:03.769Z,99.99
2019-04-27T01:52:00.275Z,99.99
2019-04-27T01:53:00.275Z,99.99
2019-04-27T01:54:00.270Z,99.99
2019-04-27T01:55:00.769Z,99.99
2019-04-27T01:56:00.776Z,99.99
2019-04-27T01:57:25.771Z,99.99
2019-04-27T01:58:00.768Z,99.99
2019-04-27T02:00:32.499Z,99.99
2019-04-27T02:01:32.511Z,99.99
2019-04-27T02:02:36.545Z,99.99
2019-04-27T02:03:54.040Z,99.99
2019-04-27T02:04:34.464Z,99.99
2019-04-27T02:05:33.011Z,99.99
2019-04-27T02:06:54.011Z,99.99
2019-04-27T02:07:34.445Z,99.99
2019-04-27T02:08:40.288Z,99.99
2019-04-27T02:09:55.945Z,99.99
2019-04-27T02:10:33.510Z,99.99
2019-04-27T02:11:33.511Z,99.99
2019-04-27T02:12:34.007Z,99.99
2019-04-27T02:13:38.841Z,99.99
2019-04-27T02:14:55.010Z,99.99
2019-04-27T02:15:34.011Z,99.99
2019-04-27T02:16:34.512Z,99.99
2019-04-27T02:17:34.511Z,99.99
2019-04-27T02:18:37.700Z,99.99
2019-04-27T02:19:39.223Z,99.99
2019-04-27T02:21:00.445Z,99.99
2019-04-27T02:21:35.022Z,99.65
2019-04-27T02:22:35.010Z,99.36
2019-04-27T02:23:35.011Z,98.88
2019-04-27T02:25:00.015Z,98.32
2019-04-27T02:27:08.969Z,98.22
2019-04-27T02:28:07.388Z,98.32
2019-04-27T02:29:08.802Z,98.60
2019-04-27T02:30:11.771Z,98.50
2019-04-27T02:31:09.826Z,97.69
2019-04-27T02:32:10.280Z,98.08
2019-04-27T02:33:12.321Z,98.36
2019-04-27T02:34:09.534Z,98.27
2019-04-27T02:35:09.211Z,98.83
2019-04-27T02:36:15.149Z,98.83
2019-04-27T02:37:10.211Z,99.22
2019-04-27T02:38:10.042Z,99.50
2019-04-27T02:40:42.633Z,99.99
2019-04-27T02:43:15.855Z,99.99
2019-04-27T02:44:24.300Z,99.99
2019-04-27T02:45:36.864Z,99.99
2019-04-27T02:46:15.868Z,99.99
2019-04-27T02:47:40.886Z,99.99
2019-04-27T02:48:19.935Z,99.99
2019-04-27T02:49:16.364Z,99.98
2019-04-27T02:50:16.367Z,99.99
2019-04-27T02:51:16.870Z,99.99
2019-04-27T02:52:41.865Z,99.99
2019-04-27T02:53:19.467Z,99.99
2019-04-27T02:54:16.865Z,99.99
2019-04-27T02:55:39.713Z,99.99
2019-04-27T02:56:19.995Z,99.99
2019-04-27T02:57:19.436Z,99.69
2019-04-27T02:58:41.874Z,99.99
2019-04-27T02:59:39.957Z,99.99
2019-04-27T03:00:20.372Z,99.99
2019-04-27T03:01:43.600Z,99.99
2019-04-27T03:02:19.681Z,99.99
2019-04-27T03:03:21.864Z,99.99
2019-04-27T03:04:20.378Z,99.99
2019-04-27T03:05:19.617Z,99.99
2019-04-27T03:06:19.913Z,99.99
2019-04-27T03:07:20.154Z,99.99
2019-04-27T03:08:20.084Z,99.99
2019-04-27T03:09:22.862Z,99.99
2019-04-27T03:10:19.841Z,99.99
2019-04-27T03:11:40.367Z,99.99
2019-04-27T03:12:19.362Z,99.99
2019-04-27T03:13:20.084Z,99.99
2019-04-27T03:14:29.388Z,99.99
2019-04-27T03:15:23.559Z,99.99
2019-04-27T03:16:22.307Z,99.99
2019-04-27T03:17:22.563Z,99.99
2019-04-27T03:18:19.863Z,99.98
2019-04-27T03:19:41.365Z,99.99
2019-04-27T03:20:23.862Z,99.99
2019-04-27T03:21:41.362Z,99.99
2019-04-27T03:22:20.370Z,99.99
2019-04-27T03:23:20.862Z,99.99
2019-04-27T03:24:23.032Z,99.99
2019-04-27T03:25:24.361Z,99.99
2019-04-27T03:26:41.934Z,99.79
2019-04-27T03:27:23.363Z,99.74
2019-04-27T03:28:21.361Z,99.99
2019-04-27T03:29:23.361Z,99.99
2019-04-27T03:31:56.793Z,99.99
2019-04-27T03:32:58.581Z,99.99
2019-04-27T03:34:00.382Z,99.99
2019-04-27T03:35:01.968Z,99.99
2019-04-27T03:36:21.954Z,99.99
2019-04-27T03:36:59.662Z,99.99
2019-04-27T03:37:57.303Z,99.99
2019-04-27T03:40:30.670Z,99.99
2019-04-27T03:41:53.544Z,99.99
2019-04-27T03:42:29.546Z,99.99
2019-04-27T03:43:30.278Z,99.99
2019-04-27T03:44:32.253Z,99.99
2019-04-27T03:45:30.234Z,99.99
2019-04-27T03:46:34.046Z,99.99
2019-04-27T03:47:30.900Z,99.99
2019-04-27T03:48:30.557Z,99.99
2019-04-27T03:49:37.936Z,99.99
2019-04-27T03:50:32.551Z,99.99
2019-04-27T03:51:30.546Z,99.99
2019-04-27T03:52:56.044Z,99.99
2019-04-27T03:53:32.018Z,99.99
2019-04-27T03:54:31.051Z,99.99
2019-04-27T03:55:31.050Z,99.99
2019-04-27T03:56:31.544Z,99.99
2019-04-27T03:57:31.545Z,99.99
2019-04-27T03:58:35.043Z,99.99
2019-04-27T03:59:32.596Z,99.99
2019-04-27T04:00:32.064Z,99.99
2019-04-27T04:01:32.049Z,99.99
2019-04-27T04:02:32.043Z,99.99
2019-04-27T04:05:09.662Z,99.99
2019-04-27T04:06:07.384Z,99.99
2019-04-27T04:07:09.449Z,99.99
2019-04-27T04:08:30.774Z,99.99
2019-04-27T04:09:11.385Z,99.99
2019-04-27T04:10:10.364Z,99.99
2019-04-27T04:11:10.190Z,99.99
2019-04-27T04:12:10.384Z,99.99
2019-04-27T04:13:29.625Z,99.99
2019-04-27T04:14:10.146Z,99.99
2019-04-27T04:15:12.385Z,99.99
2019-04-27T04:16:10.792Z,99.99
2019-04-27T04:17:09.860Z,99.99
2019-04-27T04:18:09.807Z,99.99
2019-04-27T04:19:10.049Z,99.99
2019-04-27T04:20:33.893Z,99.99
2019-04-27T04:21:30.384Z,99.99
2019-04-27T04:23:41.246Z,99.99
2019-04-27T04:24:41.255Z,99.99
2019-04-27T04:25:45.256Z,99.99
2019-04-27T04:26:41.258Z,99.99
2019-04-27T04:27:42.892Z,99.99
2019-04-27T04:28:41.756Z,99.99
2019-04-27T04:29:41.759Z,99.99
2019-04-27T04:30:41.764Z,99.99
2019-04-27T04:31:45.258Z,99.99
2019-04-27T04:32:43.250Z,99.99
2019-04-27T04:33:42.260Z,99.99
2019-04-27T04:34:42.259Z,99.99
2019-04-27T04:35:42.755Z,99.99
2019-04-27T04:36:46.749Z,99.99
2019-04-27T04:37:42.757Z,99.99
2019-04-27T04:38:42.754Z,99.99
2019-04-27T04:39:43.255Z,99.99
2019-04-27T04:40:43.255Z,99.99
2019-04-27T04:41:43.639Z,99.99
2019-04-27T04:42:49.903Z,99.99
2019-04-27T04:43:43.754Z,99.69
2019-04-27T04:44:43.756Z,99.98
2019-04-27T04:45:43.768Z,99.98
2019-04-27T04:46:43.754Z,99.79
2019-04-27T04:47:44.255Z,99.99
2019-04-27T04:48:47.261Z,99.99
2019-04-27T04:49:44.253Z,99.99
2019-04-27T04:50:44.253Z,99.99
2019-04-27T04:51:44.763Z,99.99
2019-04-27T04:52:44.753Z,99.99
2019-04-27T04:54:09.760Z,99.99
2019-04-27T04:54:44.758Z,99.99
2019-04-27T04:55:45.260Z,99.99
2019-04-27T04:56:45.252Z,99.99
2019-04-27T04:57:45.252Z,99.99
2019-04-27T04:58:45.252Z,99.99
2019-04-27T04:59:51.500Z,99.99
2019-04-27T05:00:45.753Z,99.99
2019-04-27T05:01:45.796Z,99.99
2019-04-27T05:02:45.766Z,99.99
2019-04-27T05:03:46.253Z,99.99
2019-04-27T05:05:11.252Z,99.99
2019-04-27T05:05:46.261Z,99.99
2019-04-27T05:06:46.253Z,99.99
2019-04-27T05:08:09.082Z,99.99
2019-04-27T05:08:46.752Z,99.99
2019-04-27T05:09:48.523Z,99.99
2019-04-27T05:10:50.751Z,99.99
2019-04-27T05:11:48.711Z,99.99
2019-04-27T05:12:48.626Z,99.99
2019-04-27T05:13:47.252Z,99.99
2019-04-27T05:14:48.949Z,99.99
2019-04-27T05:15:48.683Z,99.99
2019-04-27T05:16:51.760Z,99.99
2019-04-27T05:17:48.381Z,99.99
2019-04-27T05:18:49.420Z,99.99
2019-04-27T05:19:49.100Z,99.99
2019-04-27T05:22:44.120Z,99.99
2019-04-27T05:23:19.636Z,99.99
2019-04-27T05:24:19.617Z,99.89
2019-04-27T05:25:20.120Z,99.41
2019-04-27T05:26:20.804Z,99.51
2019-04-27T05:27:20.117Z,99.51
2019-04-27T05:28:24.617Z,99.32
2019-04-27T05:29:41.617Z,99.03
2019-04-27T05:30:23.551Z,99.22
2019-04-27T05:31:20.618Z,99.32
2019-04-27T05:32:20.796Z,99.41
2019-04-27T05:33:21.117Z,99.60
2019-04-27T05:34:24.117Z,99.51
2019-04-27T05:35:21.113Z,99.03
2019-04-27T05:36:21.125Z,98.08
2019-04-27T05:37:28.086Z,98.18
2019-04-27T05:38:21.628Z,97.99
2019-04-27T05:39:46.616Z,98.84
2019-04-27T05:40:21.623Z,99.41
2019-04-27T05:41:22.116Z,99.32
2019-04-27T05:42:22.124Z,99.22
2019-04-27T05:43:25.552Z,99.22
2019-04-27T05:44:48.855Z,99.32
2019-04-27T05:45:22.927Z,99.41
2019-04-27T05:46:22.629Z,99.41
2019-04-27T05:47:22.617Z,98.94
2019-04-27T05:48:27.573Z,99.13
2019-04-27T05:49:44.552Z,99.18
2019-04-27T05:50:36.437Z,99.18
2019-04-27T05:51:23.116Z,99.60
2019-04-27T05:52:23.116Z,99.94
2019-04-27T05:53:23.615Z,99.99
2019-04-27T05:54:23.616Z,99.99
2019-04-27T05:55:23.613Z,99.99
2019-04-27T05:56:28.895Z,99.99
2019-04-27T05:57:26.551Z,99.99
2019-04-27T05:58:24.116Z,99.99
2019-04-27T05:59:24.121Z,99.99
2019-04-27T06:00:24.166Z,99.94
2019-04-27T06:01:49.187Z,99.18
2019-04-27T06:02:25.550Z,98.13
2019-04-27T06:03:24.615Z,98.22
2019-04-27T06:04:24.615Z,97.94
2019-04-27T06:05:24.614Z,98.70
2019-04-27T06:06:25.121Z,98.89
2019-04-27T06:08:56.478Z,99.60
2019-04-27T06:09:56.480Z,98.41
2019-04-27T06:10:56.487Z,98.22
2019-04-27T06:11:58.924Z,98.13
2019-04-27T06:13:00.484Z,98.08
2019-04-27T06:13:56.982Z,98.36
2019-04-27T06:14:56.987Z,98.18
2019-04-27T06:15:59.118Z,98.08
2019-04-27T06:16:59.456Z,98.32
2019-04-27T06:17:57.482Z,98.65
2019-04-27T06:19:01.482Z,97.46
2019-04-27T06:19:59.428Z,97.89
2019-04-27T06:20:59.659Z,99.22
2019-04-27T06:22:01.044Z,98.94
2019-04-27T06:22:58.891Z,98.22
2019-04-27T06:23:59.917Z,97.99
2019-04-27T06:25:02.496Z,98.08
2019-04-27T06:26:01.611Z,99.22
2019-04-27T06:26:59.648Z,98.08
2019-04-27T06:27:59.277Z,97.84
2019-04-27T06:28:59.498Z,97.08
2019-04-27T06:29:59.456Z,97.17
2019-04-27T06:31:23.482Z,98.27
2019-04-27T06:31:59.447Z,99.80
2019-04-27T06:33:00.915Z,99.41
2019-04-27T06:33:59.827Z,98.41
2019-04-27T06:34:59.486Z,98.70
2019-04-27T06:36:03.488Z,98.85
2019-04-27T06:38:31.724Z,99.60
2019-04-27T06:39:31.732Z,99.70
2019-04-27T06:40:31.731Z,99.99
2019-04-27T06:41:35.231Z,99.99
2019-04-27T06:42:32.238Z,99.99
2019-04-27T06:43:32.233Z,99.99
2019-04-27T06:44:32.231Z,99.99
2019-04-27T06:45:32.734Z,99.99
2019-04-27T06:46:36.736Z,99.99
2019-04-27T06:47:32.734Z,99.99
2019-04-27T06:48:32.732Z,99.99
2019-04-27T06:49:33.230Z,99.99
2019-04-27T06:50:33.230Z,99.99
2019-04-27T06:51:33.229Z,99.99
2019-04-27T06:52:36.731Z,99.99
2019-04-27T06:53:33.731Z,99.99
2019-04-27T06:54:33.732Z,99.99
2019-04-27T06:55:33.731Z,99.99
2019-04-27T06:56:33.734Z,99.99
2019-04-27T06:57:39.090Z,99.99
2019-04-27T06:58:34.232Z,99.99
2019-04-27T06:59:35.166Z,99.95
2019-04-27T07:00:34.230Z,99.27
2019-04-27T07:01:55.733Z,99.27
2019-04-27T07:02:59.743Z,99.66
2019-04-27T07:03:34.672Z,99.46
2019-04-27T07:04:55.731Z,99.23
2019-04-27T07:05:34.728Z,99.75
2019-04-27T07:08:10.467Z,99.99
2019-04-27T07:09:06.474Z,99.99
2019-04-27T07:10:06.475Z,99.23
2019-04-27T07:11:10.976Z,98.18
2019-04-27T07:12:28.732Z,98.13
2019-04-27T07:13:06.969Z,96.08
2019-04-27T07:14:31.474Z,94.56
2019-04-27T07:15:08.904Z,94.17
2019-04-27T07:16:07.478Z,95.03
2019-04-27T07:17:08.959Z,94.93
2019-04-27T07:18:07.478Z,96.22
2019-04-27T07:19:11.473Z,97.08
2019-04-27T07:20:09.026Z,97.94
2019-04-27T07:21:16.937Z,98.23
2019-04-27T07:22:09.146Z,98.42
2019-04-27T07:23:09.524Z,97.27
2019-04-27T07:24:09.006Z,96.89
2019-04-27T07:25:11.473Z,98.57
2019-04-27T07:26:09.368Z,98.37
2019-04-27T07:27:09.361Z,97.61
2019-04-27T07:28:09.249Z,95.98
2019-04-27T07:29:09.553Z,95.12
2019-04-27T07:30:12.977Z,96.17
2019-04-27T07:31:09.648Z,95.22
2019-04-27T07:33:40.710Z,91.30
2019-04-27T07:34:40.719Z,91.97
2019-04-27T07:35:44.219Z,93.07
2019-04-27T07:37:02.221Z,92.79
2019-04-27T07:38:02.228Z,93.55
2019-04-27T07:38:41.220Z,93.79
2019-04-27T07:40:04.220Z,93.31
2019-04-27T07:40:45.722Z,93.31
2019-04-27T07:41:41.719Z,91.83
2019-04-27T07:42:50.154Z,92.21
2019-04-27T07:43:41.719Z,94.31
2019-04-27T07:44:45.656Z,94.79
2019-04-27T07:45:42.222Z,91.83
2019-04-27T07:46:49.835Z,90.11
2019-04-27T07:47:42.224Z,91.25
2019-04-27T07:48:42.219Z,92.69
2019-04-27T07:49:42.719Z,93.55
2019-04-27T07:50:42.727Z,93.31
2019-04-27T07:51:46.722Z,93.12
2019-04-27T07:52:42.720Z,92.21
2019-04-27T07:53:45.220Z,90.44
2019-04-27T07:54:43.220Z,90.16
2019-04-27T07:55:43.219Z,90.16
2019-04-27T07:56:43.217Z,89.53
2019-04-27T07:57:46.720Z,89.72
2019-04-27T08:00:15.087Z,89.77
2019-04-27T08:01:15.092Z,89.67
2019-04-27T08:02:15.094Z,89.20
2019-04-27T08:03:19.689Z,91.39
2019-04-27T08:04:15.593Z,92.40
2019-04-27T08:05:15.593Z,92.40
2019-04-27T08:06:15.615Z,89.58
2019-04-27T08:07:19.697Z,87.48
2019-04-27T08:08:19.016Z,87.19
2019-04-27T08:09:40.096Z,88.05
2019-04-27T08:10:16.093Z,88.43
2019-04-27T08:11:39.109Z,86.90
2019-04-27T08:12:16.599Z,86.71
2019-04-27T08:13:16.596Z,85.85
2019-04-27T08:14:20.593Z,86.61
2019-04-27T08:15:18.823Z,89.15
2019-04-27T08:16:18.357Z,91.53
2019-04-27T08:17:18.897Z,89.24
2019-04-27T08:18:18.831Z,90.30
2019-04-27T08:19:19.263Z,86.90
2019-04-27T08:20:21.594Z,86.85
2019-04-27T08:21:18.879Z,88.00
2019-04-27T08:22:19.267Z,88.38
2019-04-27T08:23:19.552Z,85.51
2019-04-27T08:24:19.424Z,84.99
2019-04-27T08:25:18.944Z,85.80
2019-04-27T08:26:21.594Z,86.18
2019-04-27T08:27:19.411Z,87.71
2019-04-27T08:28:18.831Z,88.00
2019-04-27T08:29:18.594Z,85.99
2019-04-27T08:30:19.475Z,85.13
2019-04-27T08:31:22.593Z,87.14
2019-04-27T08:32:20.037Z,87.71
2019-04-27T08:33:42.093Z,87.14
2019-04-27T08:34:19.094Z,87.90
2019-04-27T08:35:19.535Z,89.72
2019-04-27T08:36:19.604Z,87.04
2019-04-27T08:37:22.598Z,87.71
2019-04-27T08:38:20.655Z,86.94
2019-04-27T08:39:19.593Z,85.03
2019-04-27T08:40:20.093Z,85.61
2019-04-27T08:41:21.271Z,85.99
2019-04-27T08:43:55.267Z,88.00
2019-04-27T08:44:55.272Z,87.43
2019-04-27T08:45:55.270Z,85.89
2019-04-27T08:46:55.767Z,85.84
2019-04-27T08:47:59.603Z,83.93
2019-04-27T08:48:55.768Z,86.13
2019-04-27T08:49:55.777Z,88.33
2019-04-27T08:51:19.699Z,90.15
2019-04-27T08:52:17.633Z,90.86
2019-04-27T08:52:56.272Z,91.53
2019-04-27T08:54:21.272Z,86.84
2019-04-27T08:55:19.388Z,83.87
2019-04-27T08:55:56.772Z,82.87
2019-04-27T08:56:59.676Z,85.60
2019-04-27T08:57:58.562Z,85.50
2019-04-27T08:58:57.274Z,85.12
2019-04-27T09:00:21.273Z,88.18
2019-04-27T09:00:58.932Z,81.82
2019-04-27T09:01:58.703Z,80.19
2019-04-27T09:02:59.381Z,85.08
2019-04-27T09:03:59.274Z,82.01
2019-04-27T09:05:01.781Z,80.67
2019-04-27T09:05:59.037Z,81.54
2019-04-27T09:06:59.754Z,79.52
2019-04-27T09:08:00.707Z,77.75
2019-04-27T09:08:59.292Z,77.84
2019-04-27T09:10:00.235Z,76.60
2019-04-27T09:11:02.773Z,76.89
2019-04-27T09:12:19.778Z,77.65
2019-04-27T09:12:59.100Z,77.26
2019-04-27T09:14:19.774Z,80.90
2019-04-27T09:14:59.202Z,81.57
2019-04-27T09:16:24.272Z,84.01
2019-04-27T09:17:02.845Z,85.74
2019-04-27T09:18:00.726Z,83.34
2019-04-27T09:18:59.772Z,82.62
2019-04-27T09:20:20.267Z,79.16
2019-04-27T09:20:59.773Z,74.72
2019-04-27T09:22:12.747Z,75.58
2019-04-27T09:22:59.772Z,77.53
2019-04-27T09:24:00.713Z,77.06
2019-04-27T09:25:00.278Z,75.71
2019-04-27T09:26:21.277Z,74.15
2019-04-27T09:27:00.276Z,72.80
2019-04-27T09:28:03.775Z,72.61
2019-04-27T09:29:00.273Z,73.95
2019-04-27T09:30:21.769Z,73.24
2019-04-27T09:31:00.778Z,75.35
2019-04-27T09:32:01.870Z,76.79
2019-04-27T09:33:04.773Z,75.54
2019-04-27T09:35:33.021Z,76.79
2019-04-27T09:36:33.033Z,74.87
2019-04-27T09:37:33.064Z,76.56
2019-04-27T09:38:57.524Z,81.57
2019-04-27T09:39:33.548Z,82.63
2019-04-27T09:40:33.519Z,79.33
2019-04-27T09:41:33.525Z,79.72
2019-04-27T09:42:34.025Z,79.14
2019-04-27T09:43:58.525Z,80.10
2019-04-27T09:44:34.025Z,77.13
2019-04-27T09:45:34.024Z,75.60
2019-04-27T09:46:36.314Z,77.99
2019-04-27T09:47:36.851Z,78.09
2019-04-27T09:48:36.168Z,75.89
2019-04-27T09:49:59.524Z,75.98
2019-04-27T09:50:36.113Z,79.72
2019-04-27T09:51:56.025Z,81.54
2019-04-27T09:52:35.868Z,82.97
2019-04-27T09:53:36.416Z,81.82
2019-04-27T09:54:40.025Z,78.19
2019-04-27T09:55:36.851Z,77.42
2019-04-27T09:56:36.394Z,78.34
2019-04-27T09:57:36.483Z,78.63
2019-04-27T10:00:31.267Z,76.62
2019-04-27T10:01:28.912Z,78.34
2019-04-27T10:02:08.654Z,75.89
2019-04-27T10:03:07.777Z,79.14
2019-04-27T10:04:07.775Z,77.23
2019-04-27T10:05:11.779Z,80.58
2019-04-27T10:06:07.775Z,79.20
2019-04-27T10:07:08.275Z,78.09
2019-04-27T10:08:08.276Z,78.47
2019-04-27T10:09:09.711Z,77.86
2019-04-27T10:10:08.275Z,76.75
2019-04-27T10:11:13.249Z,77.86
2019-04-27T10:12:29.775Z,76.04
2019-04-27T10:13:08.775Z,77.09
2019-04-27T10:14:08.773Z,76.62
2019-04-27T10:15:08.776Z,77.00
2019-04-27T10:16:12.776Z,77.95
2019-04-27T10:17:09.275Z,80.92
2019-04-27T10:18:09.275Z,79.29
2019-04-27T10:19:10.710Z,79.58
2019-04-27T10:20:30.777Z,79.58
2019-04-27T10:21:09.779Z,79.58
2019-04-27T10:22:15.976Z,79.35
2019-04-27T10:23:09.776Z,78.30
2019-04-27T10:24:10.280Z,77.34
2019-04-27T10:25:10.281Z,79.35
2019-04-27T10:26:31.277Z,78.39
2019-04-27T10:27:35.919Z,79.44
2019-04-27T10:28:31.786Z,80.11
2019-04-27T10:29:10.782Z,79.16
2019-04-27T10:30:10.775Z,82.70
2019-04-27T10:31:10.775Z,83.17
2019-04-27T10:32:11.276Z,83.84
2019-04-27T10:33:35.950Z,80.79
2019-04-27T10:34:12.211Z,81.65
2019-04-27T10:35:11.276Z,83.08
2019-04-27T10:36:11.281Z,79.83
2019-04-27T10:38:47.474Z,79.44
2019-04-27T10:39:43.021Z,80.59
2019-04-27T10:40:43.020Z,83.56
2019-04-27T10:41:43.524Z,84.70
2019-04-27T10:42:43.520Z,85.47
2019-04-27T10:43:43.520Z,83.56
2019-04-27T10:44:47.518Z,84.42
2019-04-27T10:46:06.672Z,83.17
2019-04-27T10:46:45.482Z,84.32
2019-04-27T10:47:44.023Z,81.03
2019-04-27T10:48:45.608Z,80.07
2019-04-27T10:50:09.023Z,79.79
2019-04-27T10:50:44.522Z,79.88
2019-04-27T10:51:45.686Z,82.28
2019-04-27T10:52:53.467Z,83.04
2019-04-27T10:53:45.705Z,80.74
2019-04-27T10:54:45.020Z,80.55
2019-04-27T10:55:48.530Z,81.89
2019-04-27T10:56:46.061Z,81.99
2019-04-27T10:57:45.519Z,80.55
2019-04-27T10:59:09.552Z,80.46
2019-04-27T10:59:46.195Z,81.41
2019-04-27T11:00:45.522Z,82.94
2019-04-27T11:01:50.987Z,84.38
2019-04-27T11:02:46.020Z,83.04
2019-04-27T11:03:46.351Z,80.84
2019-04-27T11:04:48.019Z,81.70
2019-04-27T11:05:46.519Z,83.99
2019-04-27T11:06:46.520Z,85.71
2019-04-27T11:07:49.519Z,83.04
2019-04-27T11:08:48.219Z,82.94
2019-04-27T11:09:47.019Z,83.99
2019-04-27T11:11:08.020Z,86.29
2019-04-27T11:11:47.025Z,86.86
2019-04-27T11:13:12.020Z,84.66
2019-04-27T11:13:47.520Z,83.13
2019-04-27T11:14:47.519Z,86.38
2019-04-27T11:15:47.520Z,86.86
2019-04-27T11:16:47.523Z,85.05
2019-04-27T11:17:48.079Z,84.19
2019-04-27T11:18:52.029Z,84.47
2019-04-27T11:19:48.020Z,84.56
2019-04-27T11:20:48.020Z,86.00
2019-04-27T11:21:48.529Z,85.62
2019-04-27T11:23:12.255Z,86.90
2019-04-27T11:23:48.521Z,87.29
2019-04-27T11:25:13.973Z,85.85
2019-04-27T11:25:49.019Z,85.09
2019-04-27T11:26:49.016Z,84.70
2019-04-27T11:27:49.019Z,85.28
2019-04-27T11:28:49.031Z,86.04
2019-04-27T11:29:53.030Z,87.09
2019-04-27T11:30:49.517Z,88.15
2019-04-27T11:33:20.884Z,89.67
2019-04-27T11:34:20.891Z,89.91
2019-04-27T11:35:25.754Z,89.10
2019-04-27T11:36:22.373Z,89.39
2019-04-27T11:37:21.391Z,89.53
2019-04-27T11:38:21.391Z,90.39
2019-04-27T11:39:21.389Z,90.87
2019-04-27T11:40:46.632Z,89.53
2019-04-27T11:41:21.126Z,87.19
2019-04-27T11:42:21.891Z,85.75
2019-04-27T11:43:21.899Z,86.71
2019-04-27T11:44:22.391Z,87.19
2019-04-27T11:45:22.391Z,87.86
2019-04-27T11:46:26.833Z,87.14
2019-04-27T11:47:22.407Z,88.19
2019-04-27T11:48:22.953Z,87.09
2019-04-27T11:49:45.604Z,87.57
2019-04-27T11:50:22.891Z,87.66
2019-04-27T11:51:26.891Z,86.52
2019-04-27T11:52:22.891Z,89.05
2019-04-27T11:53:44.392Z,89.96
2019-04-27T11:54:23.392Z,87.09
2019-04-27T11:55:23.391Z,88.05
2019-04-27T11:56:48.390Z,89.87
2019-04-27T11:57:23.891Z,89.77
2019-04-27T11:58:23.890Z,90.63
2019-04-27T11:59:23.891Z,89.29
2019-04-27T12:00:23.892Z,89.20
2019-04-27T12:01:27.048Z,90.16
2019-04-27T12:02:51.828Z,92.74
2019-04-27T12:03:24.394Z,90.63
2019-04-27T12:04:26.187Z,91.20
2019-04-27T12:05:46.493Z,89.67
2019-04-27T12:06:25.878Z,88.43
2019-04-27T12:07:28.391Z,89.39
2019-04-27T12:08:26.456Z,89.58
2019-04-27T12:09:25.394Z,87.95
2019-04-27T12:10:27.391Z,87.29
2019-04-27T12:11:26.113Z,88.72
2019-04-27T12:12:29.390Z,89.10
2019-04-27T12:13:25.997Z,89.67
2019-04-27T12:14:47.491Z,89.58
2019-04-27T12:15:26.355Z,89.48
2019-04-27T12:16:26.269Z,87.05
2019-04-27T12:17:29.130Z,88.29
2019-04-27T12:18:29.390Z,88.48
2019-04-27T12:19:26.934Z,88.68
2019-04-27T12:20:26.391Z,87.43
2019-04-27T12:21:26.390Z,86.96
2019-04-27T12:22:47.890Z,87.34
2019-04-27T12:23:35.495Z,87.34
2019-04-27T12:24:26.898Z,89.25
2019-04-27T12:25:26.889Z,88.58
2019-04-27T12:26:27.390Z,89.15
2019-04-27T12:27:48.391Z,89.44
2019-04-27T12:28:27.400Z,91.25
2019-04-27T12:29:31.391Z,91.35
2019-04-27T12:30:27.890Z,89.53
2019-04-27T12:31:27.891Z,89.44
2019-04-27T12:32:29.362Z,89.06
2019-04-27T12:33:27.890Z,87.72
2019-04-27T12:34:30.396Z,87.34
2019-04-27T12:35:31.391Z,87.34
2019-04-27T12:36:28.390Z,87.09
2019-04-27T12:37:28.430Z,86.19
2019-04-27T12:38:28.894Z,86.90
2019-04-27T12:39:28.890Z,87.57
2019-04-27T12:40:53.890Z,87.66
2019-04-27T12:41:28.891Z,86.90
2019-04-27T12:42:29.392Z,84.42
2019-04-27T12:43:29.389Z,84.13
2019-04-27T12:44:29.395Z,83.94
2019-04-27T12:45:29.390Z,85.57
2019-04-27T12:46:33.890Z,85.05
2019-04-27T12:47:29.892Z,85.52
2019-04-27T12:48:29.897Z,87.05
2019-04-27T12:49:29.896Z,87.15
2019-04-27T12:50:30.389Z,86.57
2019-04-27T12:51:30.391Z,85.71
2019-04-27T12:52:54.898Z,86.29
2019-04-27T12:53:30.390Z,85.52
2019-04-27T12:54:31.734Z,84.85
2019-04-27T12:55:30.890Z,87.34
2019-04-27T12:56:30.891Z,88.77
2019-04-27T12:57:36.394Z,87.43
2019-04-27T12:58:33.391Z,88.20
2019-04-27T12:59:33.325Z,89.53
2019-04-27T13:00:31.407Z,89.63
2019-04-27T13:01:31.390Z,90.30
2019-04-27T13:02:31.396Z,91.25
2019-04-27T13:03:36.374Z,88.10
2019-04-27T13:04:31.894Z,85.71
2019-04-27T13:05:31.891Z,86.80
2019-04-27T13:06:31.890Z,87.38
2019-04-27T13:07:32.390Z,88.81
2019-04-27T13:08:35.890Z,90.25
2019-04-27T13:09:32.391Z,89.53
2019-04-27T13:10:32.390Z,85.80
2019-04-27T13:11:32.890Z,84.17
2019-04-27T13:12:32.891Z,83.89
2019-04-27T13:13:32.888Z,85.51
2019-04-27T13:14:37.824Z,86.22
2019-04-27T13:15:33.391Z,86.70
2019-04-27T13:16:33.391Z,84.36
2019-04-27T13:17:33.390Z,84.22
2019-04-27T13:18:33.392Z,87.04
2019-04-27T13:19:58.391Z,85.03
2019-04-27T13:20:35.800Z,86.47
2019-04-27T13:21:33.890Z,88.57
2019-04-27T13:22:36.982Z,87.52
2019-04-27T13:23:34.392Z,85.80
2019-04-27T13:24:56.641Z,88.19
2019-04-27T13:25:38.554Z,88.95
2019-04-27T13:26:36.185Z,86.47
2019-04-27T13:27:36.640Z,84.65